createdAt,value
2022-10-02T00:01:28.593Z,12.40
2022-10-02T00:03:59.508Z,12.40
2022-10-02T00:06:36.213Z,12.40
2022-10-02T00:09:06.505Z,12.50
2022-10-02T00:11:44.003Z,12.50
2022-10-02T00:14:16.798Z,12.50
2022-10-02T00:16:49.966Z,12.40
2022-10-02T00:19:21.243Z,12.40
2022-10-02T00:22:15.029Z,12.40
2022-10-02T00:24:53.727Z,12.40
2022-10-02T00:27:47.881Z,12.40
2022-10-02T00:30:19.071Z,12.40
2022-10-02T00:33:04.507Z,12.50
2022-10-02T00:36:07.894Z,12.60
2022-10-02T00:38:58.394Z,12.60
2022-10-02T00:42:18.606Z,12.70
2022-10-02T00:45:23.995Z,12.60
2022-10-02T00:48:00.574Z,12.60
2022-10-02T00:50:42.165Z,12.50
2022-10-02T00:53:25.580Z,12.50
2022-10-02T00:56:12.363Z,12.50
2022-10-02T00:59:18.665Z,12.60
2022-10-02T01:01:55.378Z,12.60
2022-10-02T01:04:34.094Z,12.70
2022-10-02T01:07:03.457Z,12.60
2022-10-02T01:09:33.638Z,12.70
2022-10-02T01:12:02.812Z,12.70
2022-10-02T01:14:35.434Z,12.70
2022-10-02T01:17:05.630Z,12.70
2022-10-02T01:19:38.650Z,12.80
2022-10-02T01:22:16.014Z,12.80
2022-10-02T01:24:50.633Z,12.70
2022-10-02T01:27:19.473Z,12.80
2022-10-02T01:29:52.225Z,12.80
2022-10-02T01:32:21.224Z,12.80
2022-10-02T01:34:50.198Z,12.80
2022-10-02T01:37:18.562Z,12.80
2022-10-02T01:39:47.027Z,12.90
2022-10-02T01:42:17.207Z,12.90
2022-10-02T01:44:46.800Z,13.00
2022-10-02T01:47:20.742Z,12.90
2022-10-02T01:50:13.030Z,13.00
2022-10-02T01:52:50.838Z,13.00
2022-10-02T01:55:32.622Z,13.00
2022-10-02T01:58:24.262Z,13.10
2022-10-02T02:01:06.371Z,13.10
2022-10-02T02:03:47.454Z,13.00
2022-10-02T02:06:27.964Z,13.00
2022-10-02T02:09:09.184Z,13.10
2022-10-02T02:11:44.534Z,13.10
2022-10-02T02:14:20.935Z,13.10
2022-10-02T02:16:55.704Z,13.20
2022-10-02T02:19:32.190Z,13.20
2022-10-02T02:22:05.238Z,13.20
2022-10-02T02:24:39.581Z,13.30
2022-10-02T02:27:11.350Z,13.30
2022-10-02T02:29:44.177Z,13.20
2022-10-02T02:32:19.479Z,13.30
2022-10-02T02:34:55.806Z,13.30
2022-10-02T02:37:28.426Z,13.30
2022-10-02T02:40:00.794Z,13.30
2022-10-02T02:42:33.686Z,13.40
2022-10-02T02:45:10.918Z,13.40
2022-10-02T02:47:46.304Z,13.40
2022-10-02T02:50:22.697Z,13.40
2022-10-02T02:52:56.838Z,13.40
2022-10-02T02:55:31.924Z,13.40
2022-10-02T02:58:09.489Z,13.40
2022-10-02T03:00:39.257Z,13.40
2022-10-02T03:03:07.570Z,13.40
2022-10-02T03:05:40.215Z,13.40
2022-10-02T03:08:24.094Z,13.40
2022-10-02T03:11:07.752Z,13.40
2022-10-02T03:13:56.447Z,13.40
2022-10-02T03:16:40.978Z,13.40
2022-10-02T03:19:37.806Z,13.30
2022-10-02T03:22:13.875Z,13.30
2022-10-02T03:24:50.234Z,13.30
2022-10-02T03:27:30.276Z,13.30
2022-10-02T03:30:06.506Z,13.30
2022-10-02T03:32:37.757Z,13.40
2022-10-02T03:35:11.566Z,13.30
2022-10-02T03:37:42.173Z,13.40
2022-10-02T03:40:11.422Z,13.30
2022-10-02T03:42:40.792Z,13.40
2022-10-02T03:45:10.330Z,13.30
2022-10-02T03:47:39.942Z,13.40
2022-10-02T03:50:09.836Z,13.40
2022-10-02T03:52:38.123Z,13.30
2022-10-02T03:55:32.433Z,13.30
2022-10-02T03:58:03.751Z,13.40
2022-10-02T04:00:40.082Z,13.40
2022-10-02T04:03:16.850Z,13.50
2022-10-02T04:05:52.745Z,13.50
2022-10-02T04:08:26.848Z,13.50
2022-10-02T04:11:04.637Z,13.50
2022-10-02T04:13:38.890Z,13.50
2022-10-02T04:16:13.980Z,13.50
2022-10-02T04:18:55.524Z,13.50
2022-10-02T04:21:37.814Z,13.40
2022-10-02T04:24:18.557Z,13.50
2022-10-02T04:26:56.521Z,13.50
2022-10-02T04:29:28.197Z,13.50
2022-10-02T04:32:14.140Z,13.50
2022-10-02T04:34:44.402Z,13.50
2022-10-02T04:38:12.036Z,13.50
2022-10-02T04:40:56.362Z,13.50
2022-10-02T04:43:46.508Z,13.50
2022-10-02T04:46:35.238Z,13.50
2022-10-02T04:49:31.248Z,13.50
2022-10-02T04:52:23.566Z,13.50
2022-10-02T04:55:18.776Z,13.50
2022-10-02T04:58:09.628Z,13.50
2022-10-02T05:00:49.490Z,13.50
2022-10-02T05:03:37.245Z,13.50
2022-10-02T05:06:25.330Z,13.40
2022-10-02T05:09:15.724Z,13.50
2022-10-02T05:12:28.108Z,13.40
2022-10-02T05:15:29.981Z,13.50
2022-10-02T05:18:18.035Z,13.40
2022-10-02T05:21:05.840Z,13.40
2022-10-02T05:23:56.545Z,13.40
2022-10-02T05:26:57.866Z,13.40
2022-10-02T05:30:12.954Z,13.40
2022-10-02T05:33:23.886Z,13.30
2022-10-02T05:36:25.531Z,13.40
2022-10-02T05:39:05.034Z,13.30
2022-10-02T05:41:45.457Z,13.40
2022-10-02T05:44:20.533Z,13.30
2022-10-02T05:46:58.382Z,13.30
2022-10-02T05:49:33.731Z,13.30
2022-10-02T05:52:07.963Z,13.30
2022-10-02T05:54:46.660Z,13.30
2022-10-02T05:57:27.443Z,13.30
2022-10-02T06:00:10.640Z,13.30
2022-10-02T06:02:48.304Z,13.30
2022-10-02T06:05:22.871Z,13.30
2022-10-02T06:07:59.578Z,13.30
2022-10-02T06:10:34.047Z,13.30
2022-10-02T06:13:11.523Z,13.30
2022-10-02T06:15:47.742Z,13.30
2022-10-02T06:18:22.502Z,13.30
2022-10-02T06:20:55.962Z,13.30
2022-10-02T06:23:29.074Z,13.30
2022-10-02T06:26:01.790Z,13.30
2022-10-02T06:28:39.065Z,13.40
2022-10-02T06:31:21.320Z,13.30
2022-10-02T06:33:49.918Z,13.30
2022-10-02T06:36:46.583Z,13.30
2022-10-02T06:39:52.708Z,13.30
2022-10-02T06:42:39.166Z,13.30
2022-10-02T06:45:21.230Z,13.40
2022-10-02T06:48:06.434Z,13.40
2022-10-02T06:50:45.350Z,13.40
2022-10-02T06:53:33.630Z,13.50
2022-10-02T06:56:16.388Z,13.50
2022-10-02T06:59:04.751Z,13.50
2022-10-02T07:01:50.975Z,13.60
2022-10-02T07:04:42.224Z,13.60
2022-10-02T07:07:27.445Z,13.60
2022-10-02T07:10:16.669Z,13.60
2022-10-02T07:13:32.552Z,13.70
2022-10-02T07:16:27.714Z,13.80
2022-10-02T07:19:40.877Z,13.80
2022-10-02T07:22:43.949Z,13.80
2022-10-02T07:25:33.542Z,13.80
2022-10-02T07:29:10.838Z,13.90
2022-10-02T07:32:50.664Z,13.90
2022-10-02T07:36:45.050Z,13.90
2022-10-02T07:39:35.337Z,14.00
2022-10-02T07:42:53.185Z,14.10
2022-10-02T07:45:38.664Z,14.10
2022-10-02T07:49:17.918Z,14.10
2022-10-02T07:52:56.547Z,14.10
2022-10-02T07:56:24.728Z,14.20
2022-10-02T07:59:58.384Z,14.20
2022-10-02T08:03:33.399Z,14.30
2022-10-02T08:07:02.209Z,14.40
2022-10-02T08:10:34.833Z,14.40
2022-10-02T08:14:08.033Z,14.40
2022-10-02T08:17:41.005Z,14.40
2022-10-02T08:21:18.316Z,14.40
2022-10-02T08:24:54.902Z,14.40
2022-10-02T08:28:28.109Z,14.40
2022-10-02T08:31:55.351Z,14.40
2022-10-02T08:35:29.118Z,14.40
2022-10-02T08:39:41.990Z,14.40
2022-10-02T08:43:58.800Z,14.50
2022-10-02T08:48:07.578Z,14.60
2022-10-02T08:52:15.541Z,14.80
2022-10-02T08:56:47.260Z,14.90
2022-10-02T09:00:59.010Z,15.00
2022-10-02T09:05:25.972Z,15.10
2022-10-02T09:09:46.725Z,15.20
2022-10-02T09:14:16.165Z,15.30
2022-10-02T09:18:19.157Z,15.40
2022-10-02T09:22:25.435Z,15.60
2022-10-02T09:26:16.608Z,15.60
2022-10-02T09:30:28.195Z,15.70
2022-10-02T09:34:47.468Z,15.70
2022-10-02T09:39:09.710Z,15.60
2022-10-02T09:43:51.803Z,15.60
2022-10-02T09:48:30.352Z,15.50
2022-10-02T09:53:25.118Z,15.40
2022-10-02T09:57:56.196Z,15.50
2022-10-02T10:01:49.418Z,15.50
2022-10-02T10:06:15.490Z,15.40
2022-10-02T10:10:13.146Z,15.30
2022-10-02T10:14:36.978Z,15.20
2022-10-02T10:19:04.633Z,15.20
2022-10-02T10:23:24.676Z,15.20
2022-10-02T10:27:30.043Z,15.20
2022-10-02T10:32:08.285Z,15.30
2022-10-02T10:36:51.014Z,15.40
2022-10-02T10:40:39.294Z,15.50
2022-10-02T10:44:58.046Z,15.40
2022-10-02T10:49:03.438Z,15.60
2022-10-02T10:52:54.089Z,15.60
2022-10-02T10:56:38.361Z,15.60
2022-10-02T11:00:59.748Z,15.60
2022-10-02T11:05:09.697Z,15.60
2022-10-02T11:09:09.444Z,15.60
2022-10-02T11:13:03.322Z,15.90
2022-10-02T11:17:15.830Z,16.00
2022-10-02T11:20:16.801Z,16.20
2022-10-02T11:23:30.656Z,16.30
2022-10-02T11:26:46.669Z,16.30
2022-10-02T11:30:00.341Z,16.20
2022-10-02T11:33:34.032Z,16.20
2022-10-02T11:36:42.677Z,16.20
2022-10-02T11:39:20.769Z,16.10
2022-10-02T11:42:21.632Z,16.10
2022-10-02T11:45:17.410Z,16.10
2022-10-02T11:48:20.235Z,16.20
2022-10-02T11:51:10.401Z,16.30
2022-10-02T11:54:02.119Z,16.40
2022-10-02T11:57:02.344Z,16.40
2022-10-02T12:00:06.274Z,16.50
2022-10-02T12:02:42.493Z,16.60
2022-10-02T12:05:36.001Z,16.60
2022-10-02T12:08:18.147Z,16.60
2022-10-02T12:10:57.405Z,16.90
2022-10-02T12:13:47.146Z,17.00
2022-10-02T12:16:30.421Z,17.10
2022-10-02T12:19:19.049Z,17.40
2022-10-02T12:22:24.303Z,17.40
2022-10-02T12:25:21.875Z,17.60
2022-10-02T12:28:04.849Z,17.50
2022-10-02T12:30:42.424Z,17.50
2022-10-02T12:33:32.562Z,17.60
2022-10-02T12:36:36.093Z,17.60
2022-10-02T12:39:22.320Z,17.50
2022-10-02T12:42:20.600Z,17.40
2022-10-02T12:45:35.282Z,17.30
2022-10-02T12:48:31.956Z,17.30
2022-10-02T12:51:35.896Z,17.30
2022-10-02T12:55:14.909Z,17.20
2022-10-02T12:58:06.523Z,17.30
2022-10-02T13:01:00.056Z,17.20
2022-10-02T13:04:09.459Z,17.10
2022-10-02T13:07:37.664Z,17.20
2022-10-02T13:10:19.780Z,17.30
2022-10-02T13:13:17.770Z,17.30
2022-10-02T13:15:59.420Z,17.40
2022-10-02T13:18:53.368Z,17.40
2022-10-02T13:21:29.465Z,17.40
2022-10-02T13:24:20.195Z,17.40
2022-10-02T13:27:02.867Z,17.30
2022-10-02T13:29:48.191Z,17.30
2022-10-02T13:33:00.145Z,17.30
2022-10-02T13:35:50.515Z,17.20
2022-10-02T13:38:43.770Z,17.20
2022-10-02T13:41:27.824Z,17.10
2022-10-02T13:44:22.483Z,17.10
2022-10-02T13:47:11.398Z,17.00
2022-10-02T13:50:04.761Z,17.00
2022-10-02T13:52:49.988Z,17.00
2022-10-02T13:55:26.348Z,17.10
2022-10-02T13:58:21.168Z,17.00
2022-10-02T14:01:13.024Z,17.00
2022-10-02T14:04:23.517Z,17.10
2022-10-02T14:07:00.947Z,17.10
2022-10-02T14:09:48.582Z,17.20
2022-10-02T14:12:40.952Z,17.30
2022-10-02T14:15:32.210Z,17.20
2022-10-02T14:18:43.325Z,17.10
2022-10-02T14:21:26.094Z,17.00
2022-10-02T14:24:45.050Z,16.90
2022-10-02T14:27:25.899Z,17.00
2022-10-02T14:30:04.829Z,17.00
2022-10-02T14:33:00.856Z,17.20
2022-10-02T14:35:45.095Z,17.30
2022-10-02T14:39:09.669Z,17.40
2022-10-02T14:42:02.254Z,17.40
2022-10-02T14:45:21.398Z,17.40
2022-10-02T14:48:06.451Z,17.50
2022-10-02T14:51:07.213Z,17.60
2022-10-02T14:54:19.008Z,17.50
2022-10-02T14:57:06.330Z,17.50
2022-10-02T15:00:25.323Z,17.40
2022-10-02T15:03:20.578Z,17.30
2022-10-02T15:06:22.158Z,17.30
2022-10-02T15:08:59.911Z,17.40
2022-10-02T15:11:58.599Z,17.50
2022-10-02T15:14:39.974Z,17.60
2022-10-02T15:17:34.086Z,17.60
2022-10-02T15:20:21.123Z,17.60
2022-10-02T15:22:59.412Z,17.80
2022-10-02T15:25:51.368Z,17.80
2022-10-02T15:28:37.137Z,17.70
2022-10-02T15:31:20.170Z,17.60
2022-10-02T15:34:08.679Z,17.50
2022-10-02T15:37:12.206Z,17.50
2022-10-02T15:40:06.037Z,17.50
2022-10-02T15:42:51.260Z,17.50
2022-10-02T15:45:42.597Z,17.50
2022-10-02T15:49:05.164Z,17.50
2022-10-02T15:51:53.638Z,17.60
2022-10-02T15:54:43.902Z,17.70
2022-10-02T15:57:36.811Z,17.30
2022-10-02T16:00:18.007Z,17.20
2022-10-02T16:03:16.805Z,17.00
2022-10-02T16:06:02.202Z,17.00
2022-10-02T16:09:19.507Z,17.00
2022-10-02T16:12:18.978Z,16.80
2022-10-02T16:14:59.855Z,16.80
2022-10-02T16:18:04.076Z,16.70
2022-10-02T16:21:14.227Z,16.70
2022-10-02T16:24:11.210Z,16.60
2022-10-02T16:27:11.012Z,16.50
2022-10-02T16:29:54.906Z,16.50
2022-10-02T16:32:35.439Z,16.30
2022-10-02T16:35:26.461Z,16.30
2022-10-02T16:38:06.755Z,16.20
2022-10-02T16:40:45.938Z,16.10
2022-10-02T16:43:59.319Z,16.00
2022-10-02T16:46:38.140Z,16.10
2022-10-02T16:49:24.578Z,16.10
2022-10-02T16:52:06.011Z,16.00
2022-10-02T16:54:47.334Z,16.00
2022-10-02T16:57:29.907Z,15.90
2022-10-02T17:00:08.671Z,15.90
2022-10-02T17:02:47.460Z,15.80
2022-10-02T17:05:28.121Z,15.70
2022-10-02T17:08:09.921Z,15.60
2022-10-02T17:11:07.783Z,15.60
2022-10-02T17:13:51.693Z,15.50
2022-10-02T17:16:29.185Z,15.40
2022-10-02T17:19:00.110Z,15.30
2022-10-02T17:21:43.074Z,15.30
2022-10-02T17:24:32.431Z,15.30
2022-10-02T17:27:17.193Z,15.30
2022-10-02T17:29:59.331Z,15.30
2022-10-02T17:32:54.522Z,15.10
2022-10-02T17:35:48.492Z,15.00
2022-10-02T17:38:51.567Z,14.90
2022-10-02T17:41:37.642Z,14.80
2022-10-02T17:44:23.728Z,14.70
2022-10-02T17:47:15.007Z,14.70
2022-10-02T17:50:02.081Z,14.60
2022-10-02T17:52:58.252Z,14.40
2022-10-02T17:56:31.775Z,14.30
2022-10-02T17:59:40.278Z,14.20
2022-10-02T18:02:27.011Z,14.40
2022-10-02T18:05:19.354Z,14.20
2022-10-02T18:08:07.147Z,14.30
2022-10-02T18:10:49.792Z,14.10
2022-10-02T18:13:59.431Z,14.10
2022-10-02T18:16:46.226Z,14.10
2022-10-02T18:19:30.370Z,14.10
2022-10-02T18:22:33.416Z,14.00
2022-10-02T18:25:32.745Z,13.80
2022-10-02T18:28:24.302Z,13.70
2022-10-02T18:31:08.563Z,13.60
2022-10-02T18:34:17.363Z,13.60
2022-10-02T18:37:09.749Z,13.20
2022-10-02T18:39:49.405Z,13.10
2022-10-02T18:42:49.687Z,13.10
2022-10-02T18:45:42.007Z,13.10
2022-10-02T18:48:50.869Z,13.20
2022-10-02T18:54:27.792Z,13.00
2022-10-02T18:57:22.105Z,12.90
2022-10-02T19:00:05.074Z,12.80
2022-10-02T19:02:55.771Z,12.70
2022-10-02T19:05:32.398Z,12.70
2022-10-02T19:08:19.593Z,12.90
2022-10-02T19:10:49.692Z,12.80
2022-10-02T19:13:27.205Z,12.60
2022-10-02T19:15:58.832Z,12.60
2022-10-02T19:18:31.443Z,12.50
2022-10-02T19:21:08.567Z,12.50
2022-10-02T19:23:42.251Z,12.50
2022-10-02T19:26:23.185Z,12.50
2022-10-02T19:28:55.667Z,12.40
2022-10-02T19:31:28.205Z,12.30
2022-10-02T19:34:03.501Z,12.30
2022-10-02T19:36:42.042Z,12.30
2022-10-02T19:39:22.028Z,12.30
2022-10-02T19:41:59.138Z,12.00
2022-10-02T19:44:32.995Z,11.90
2022-10-02T19:47:13.243Z,12.00
2022-10-02T19:49:43.009Z,11.90
2022-10-02T19:52:41.034Z,12.00
2022-10-02T19:55:27.655Z,11.80
2022-10-02T19:58:05.210Z,11.70
2022-10-02T20:00:38.891Z,11.80
2022-10-02T20:03:15.686Z,11.40
2022-10-02T20:05:48.552Z,11.20
2022-10-02T20:08:22.060Z,11.10
2022-10-02T20:11:04.570Z,11.20
2022-10-02T20:13:42.271Z,11.20
2022-10-02T20:16:50.530Z,11.30
2022-10-02T20:19:24.387Z,11.60
2022-10-02T20:21:56.629Z,11.20
2022-10-02T20:24:34.026Z,11.20
